Vestal Gardens, New York
Current Conditions -  °F | °C
As of 5:53 PM on Monday 22 Dec 2014 (Local Time) from KBGM Reporting Station
Scattered Clouds Scattered Clouds  
Wind Chill: 24°   Ceiling: Unl
Heat Index: 32°   Visibility: 10mi
Dew Point: 28°   Wind: 9mph
Humidity: 85%   Direction: 140°SE
Pressure: 30.11"   Gusts: NA
Location:  42.0463°N, 76.0314°W
Report Text: KBGM 222253Z 14008KT 10SM SCT080 00/M02 A3011 RMK AO2 SLP216 T00001022
Loading
Personal Weather Stations






























Interactive Weather Map New forecast layout! Learn more

10-Day Weather Forecast

Advertisements
Track Severe Weather on mobile